sensor_id;sensor_type;location;lat;lon;timestamp;pressure;altitude;pressure_sealevel;temperature;humidity
50867;BME280;36839;51.946;21.002;2022-09-16T00:01:00;98786.10;;;10.41;100.00
50867;BME280;36839;51.946;21.002;2022-09-16T00:03:28;98786.10;;;10.41;100.00
50867;BME280;36839;51.946;21.002;2022-09-16T00:05:54;98784.22;;;10.39;100.00
50867;BME280;36839;51.946;21.002;2022-09-16T00:08:22;98784.47;;;10.40;100.00
50867;BME280;36839;51.946;21.002;2022-09-16T00:10:52;98784.22;;;10.39;100.00
50867;BME280;36839;51.946;21.002;2022-09-16T00:13:19;98784.22;;;10.39;100.00
50867;BME280;36839;51.946;21.002;2022-09-16T00:15:48;98788.02;;;10.43;100.00
50867;BME280;36839;51.946;21.002;2022-09-16T00:18:20;98796.58;;;10.42;100.00
50867;BME280;36839;51.946;21.002;2022-09-16T00:20:50;98796.58;;;10.42;100.00
50867;BME280;36839;51.946;21.002;2022-09-16T00:23:18;98796.33;;;10.41;100.00
50867;BME280;36839;51.946;21.002;2022-09-16T00:25:52;98798.02;;;10.39;100.00
50867;BME280;36839;51.946;21.002;2022-09-16T00:28:25;98798.02;;;10.39;100.00
50867;BME280;36839;51.946;21.002;2022-09-16T00:30:53;98788.16;;;10.36;100.00
50867;BME280;36839;51.946;21.002;2022-09-16T00:33:23;98788.16;;;10.36;100.00
50867;BME280;36839;51.946;21.002;2022-09-16T00:35:51;98796.44;;;10.36;100.00
50867;BME280;36839;51.946;21.002;2022-09-16T00:38:19;98792.80;;;10.38;100.00
50867;BME280;36839;51.946;21.002;2022-09-16T00:40:49;98792.80;;;10.38;100.00
50867;BME280;36839;51.946;21.002;2022-09-16T00:43:17;98792.24;;;10.38;100.00
50867;BME280;36839;51.946;21.002;2022-09-16T00:45:47;98793.37;;;10.37;100.00
50867;BME280;36839;51.946;21.002;2022-09-16T00:48:23;98793.37;;;10.37;100.00
50867;BME280;36839;51.946;21.002;2022-09-16T00:50:49;98784.34;;;10.32;100.00
50867;BME280;36839;51.946;21.002;2022-09-16T00:53:22;98784.34;;;10.32;100.00
50867;BME280;36839;51.946;21.002;2022-09-16T00:55:47;98790.17;;;10.30;100.00
50867;BME280;36839;51.946;21.002;2022-09-16T00:58:30;98788.95;;;10.20;100.00
50867;BME280;36839;51.946;21.002;2022-09-16T01:00:50;98787.11;;;10.15;100.00
50867;BME280;36839;51.946;21.002;2022-09-16T01:03:19;98790.77;;;10.11;100.00
50867;BME280;36839;51.946;21.002;2022-09-16T01:05:46;98790.77;;;10.11;100.00
50867;BME280;36839;51.946;21.002;2022-09-16T01:08:15;98788.52;;;10.13;100.00
50867;BME280;36839;51.946;21.002;2022-09-16T01:10:43;98787.70;;;10.12;100.00
50867;BME280;36839;51.946;21.002;2022-09-16T01:13:12;98791.27;;;10.13;100.00
50867;BME280;36839;51.946;21.002;2022-09-16T01:16:45;98793.19;;;10.15;100.00
50867;BME280;36839;51.946;21.002;2022-09-16T01:26:46;98795.37;;;10.34;100.00
50867;BME280;36839;51.946;21.002;2022-09-16T01:29:47;98798.89;;;10.37;100.00
50867;BME280;36839;51.946;21.002;2022-09-16T01:34:58;98797.12;;;10.44;100.00
50867;BME280;36839;51.946;21.002;2022-09-16T01:37:32;98799.57;;;10.45;100.00
50867;BME280;36839;51.946;21.002;2022-09-16T01:40:06;98803.34;;;10.49;100.00
50867;BME280;36839;51.946;21.002;2022-09-16T01:42:38;98803.34;;;10.49;100.00
50867;BME280;36839;51.946;21.002;2022-09-16T01:50:45;98806.11;;;10.49;100.00
50867;BME280;36839;51.946;21.002;2022-09-16T01:53:18;98806.11;;;10.49;100.00
50867;BME280;36839;51.946;21.002;2022-09-16T01:55:47;98808.87;;;10.49;100.00
50867;BME280;36839;51.946;21.002;2022-09-16T01:58:25;98808.87;;;10.49;100.00
50867;BME280;36839;51.946;21.002;2022-09-16T02:01:02;98809.43;;;10.49;100.00
50867;BME280;36839;51.946;21.002;2022-09-16T02:03:23;98809.43;;;10.49;100.00
50867;BME280;36839;51.946;21.002;2022-09-16T02:06:05;98810.42;;;10.55;100.00
50867;BME280;36839;51.946;21.002;2022-09-16T02:08:39;98810.42;;;10.55;100.00
50867;BME280;36839;51.946;21.002;2022-09-16T02:11:09;98811.13;;;10.61;100.00
50867;BME280;36839;51.946;21.002;2022-09-16T02:13:52;98811.13;;;10.61;100.00
50867;BME280;36839;51.946;21.002;2022-09-16T02:16:25;98818.88;;;10.62;100.00
50867;BME280;36839;51.946;21.002;2022-09-16T02:18:55;98818.88;;;10.62;100.00
50867;BME280;36839;51.946;21.002;2022-09-16T02:21:25;98820.79;;;10.61;100.00
50867;BME280;36839;51.946;21.002;2022-09-16T02:23:54;98823.30;;;10.60;100.00
50867;BME280;36839;51.946;21.002;2022-09-16T02:26:29;98823.30;;;10.60;100.00
50867;BME280;36839;51.946;21.002;2022-09-16T02:28:55;98825.49;;;10.61;100.00
50867;BME280;36839;51.946;21.002;2022-09-16T02:31:29;98830.43;;;10.64;100.00
50867;BME280;36839;51.946;21.002;2022-09-16T02:34:03;98825.41;;;10.66;100.00
50867;BME280;36839;51.946;21.002;2022-09-16T02:36:35;98822.28;;;10.70;100.00
50867;BME280;36839;51.946;21.002;2022-09-16T02:39:07;98822.28;;;10.70;100.00
50867;BME280;36839;51.946;21.002;2022-09-16T02:41:36;98822.57;;;10.71;100.00
50867;BME280;36839;51.946;21.002;2022-09-16T02:44:06;98826.09;;;10.74;100.00
50867;BME280;36839;51.946;21.002;2022-09-16T02:46:59;98828.29;;;10.74;100.00
50867;BME280;36839;51.946;21.002;2022-09-16T02:55:14;98836.88;;;10.73;100.00
50867;BME280;36839;51.946;21.002;2022-09-16T02:57:33;98832.74;;;10.73;100.00
50867;BME280;36839;51.946;21.002;2022-09-16T03:00:04;98827.47;;;10.74;100.00
50867;BME280;36839;51.946;21.002;2022-09-16T03:02:32;98827.47;;;10.74;100.00
50867;BME280;36839;51.946;21.002;2022-09-16T03:05:02;98824.71;;;10.74;100.00
50867;BME280;36839;51.946;21.002;2022-09-16T03:07:31;98818.77;;;10.67;100.00
50867;BME280;36839;51.946;21.002;2022-09-16T03:10:00;98815.80;;;10.63;100.00
50867;BME280;36839;51.946;21.002;2022-09-16T03:15:53;98817.58;;;10.56;100.00
50867;BME280;36839;51.946;21.002;2022-09-16T03:32:03;98824.80;;;10.39;100.00
50867;BME280;36839;51.946;21.002;2022-09-16T03:37:08;98823.34;;;10.27;100.00
50867;BME280;36839;51.946;21.002;2022-09-16T03:39:38;98822.53;;;10.27;100.00
50867;BME280;36839;51.946;21.002;2022-09-16T03:42:08;98822.53;;;10.27;100.00
50867;BME280;36839;51.946;21.002;2022-09-16T03:44:38;98821.47;;;10.23;100.00
50867;BME280;36839;51.946;21.002;2022-09-16T03:47:07;98822.36;;;10.18;100.00
50867;BME280;36839;51.946;21.002;2022-09-16T03:49:39;98818.53;;;10.17;100.00
50867;BME280;36839;51.946;21.002;2022-09-16T03:52:11;98827.68;;;10.15;100.00
50867;BME280;36839;51.946;21.002;2022-09-16T03:54:39;98826.63;;;10.11;100.00
50867;BME280;36839;51.946;21.002;2022-09-16T03:57:09;98834.09;;;10.10;100.00
50867;BME280;36839;51.946;21.002;2022-09-16T03:59:37;98834.09;;;10.10;100.00
50867;BME280;36839;51.946;21.002;2022-09-16T04:02:03;98831.14;;;10.04;100.00
50867;BME280;36839;51.946;21.002;2022-09-16T04:04:31;98838.91;;;10.02;100.00
50867;BME280;36839;51.946;21.002;2022-09-16T04:06:59;98846.66;;;10.00;100.00
50867;BME280;36839;51.946;21.002;2022-09-16T04:09:27;98843.09;;;9.99;100.00
50867;BME280;36839;51.946;21.002;2022-09-16T04:11:55;98846.41;;;9.99;100.00
50867;BME280;36839;51.946;21.002;2022-09-16T04:14:23;98844.52;;;9.97;100.00
50867;BME280;36839;51.946;21.002;2022-09-16T04:16:51;98848.95;;;9.95;100.00
50867;BME280;36839;51.946;21.002;2022-09-16T04:19:19;98850.05;;;9.94;100.00
50867;BME280;36839;51.946;21.002;2022-09-16T04:21:45;98850.05;;;9.94;100.00
50867;BME280;36839;51.946;21.002;2022-09-16T04:24:13;98848.97;;;9.93;100.00
50867;BME280;36839;51.946;21.002;2022-09-16T04:26:42;98848.46;;;9.91;100.00
50867;BME280;36839;51.946;21.002;2022-09-16T04:29:10;98852.86;;;9.92;100.00
50867;BME280;36839;51.946;21.002;2022-09-16T04:31:38;98852.86;;;9.92;100.00
50867;BME280;36839;51.946;21.002;2022-09-16T04:34:08;98854.80;;;9.91;100.00
50867;BME280;36839;51.946;21.002;2022-09-16T04:36:39;98856.99;;;9.92;100.00
50867;BME280;36839;51.946;21.002;2022-09-16T04:39:08;98856.13;;;9.94;100.00
50867;BME280;36839;51.946;21.002;2022-09-16T04:41:39;98858.05;;;9.96;100.00
50867;BME280;36839;51.946;21.002;2022-09-16T04:44:08;98848.91;;;9.98;100.00
50867;BME280;36839;51.946;21.002;2022-09-16T04:46:37;98848.91;;;9.98;100.00
50867;BME280;36839;51.946;21.002;2022-09-16T04:49:05;98851.31;;;10.02;100.00
50867;BME280;36839;51.946;21.002;2022-09-16T04:51:33;98854.05;;;10.05;100.00
50867;BME280;36839;51.946;21.002;2022-09-16T04:54:00;98860.39;;;10.05;100.00
50867;BME280;36839;51.946;21.002;2022-09-16T04:56:29;98860.39;;;10.05;100.00
50867;BME280;36839;51.946;21.002;2022-09-16T04:58:58;98859.22;;;10.09;100.00
50867;BME280;36839;51.946;21.002;2022-09-16T05:01:30;98862.12;;;10.17;100.00
50867;BME280;36839;51.946;21.002;2022-09-16T05:04:01;98862.12;;;10.17;100.00
50867;BME280;36839;51.946;21.002;2022-09-16T05:06:33;98858.45;;;10.24;100.00
50867;BME280;36839;51.946;21.002;2022-09-16T05:09:02;98858.45;;;10.24;100.00
50867;BME280;36839;51.946;21.002;2022-09-16T05:11:33;98863.87;;;10.29;100.00
50867;BME280;36839;51.946;21.002;2022-09-16T05:14:06;98859.66;;;10.35;100.00
50867;BME280;36839;51.946;21.002;2022-09-16T05:16:37;98861.73;;;10.43;100.00
50867;BME280;36839;51.946;21.002;2022-09-16T05:19:05;98861.06;;;10.48;100.00
50867;BME280;36839;51.946;21.002;2022-09-16T05:21:33;98867.33;;;10.54;100.00
50867;BME280;36839;51.946;21.002;2022-09-16T05:24:01;98868.59;;;10.59;100.00
50867;BME280;36839;51.946;21.002;2022-09-16T05:26:30;98870.36;;;10.69;100.00
50867;BME280;36839;51.946;21.002;2022-09-16T05:29:09;98870.53;;;10.75;100.00
50867;BME280;36839;51.946;21.002;2022-09-16T05:31:36;98870.53;;;10.75;100.00
50867;BME280;36839;51.946;21.002;2022-09-16T05:34:12;98875.41;;;10.80;100.00
50867;BME280;36839;51.946;21.002;2022-09-16T05:36:42;98875.81;;;10.87;100.00
50867;BME280;36839;51.946;21.002;2022-09-16T05:39:11;98874.20;;;11.00;100.00
50867;BME280;36839;51.946;21.002;2022-09-16T05:41:38;98874.20;;;11.00;100.00
50867;BME280;36839;51.946;21.002;2022-09-16T05:44:08;98866.47;;;11.13;100.00
50867;BME280;36839;51.946;21.002;2022-09-16T05:46:35;98874.11;;;11.19;100.00
50867;BME280;36839;51.946;21.002;2022-09-16T05:49:02;98883.09;;;11.25;100.00
50867;BME280;36839;51.946;21.002;2022-09-16T05:51:29;98879.05;;;11.33;100.00
50867;BME280;36839;51.946;21.002;2022-09-16T05:53:58;98879.05;;;11.33;100.00
50867;BME280;36839;51.946;21.002;2022-09-16T05:56:28;98888.98;;;11.48;100.00
50867;BME280;36839;51.946;21.002;2022-09-16T05:58:57;98884.21;;;11.51;100.00
50867;BME280;36839;51.946;21.002;2022-09-16T06:01:29;98885.75;;;11.57;100.00
50867;BME280;36839;51.946;21.002;2022-09-16T06:03:54;98885.75;;;11.57;100.00
50867;BME280;36839;51.946;21.002;2022-09-16T06:06:43;98884.39;;;11.68;100.00
50867;BME280;36839;51.946;21.002;2022-09-16T06:09:15;98882.88;;;11.73;100.00
50867;BME280;36839;51.946;21.002;2022-09-16T06:11:45;98882.88;;;11.73;100.00
50867;BME280;36839;51.946;21.002;2022-09-16T06:14:13;98870.56;;;11.93;100.00
50867;BME280;36839;51.946;21.002;2022-09-16T06:16:42;98872.80;;;12.05;100.00
50867;BME280;36839;51.946;21.002;2022-09-16T06:19:12;98881.22;;;12.11;100.00
50867;BME280;36839;51.946;21.002;2022-09-16T06:21:40;98881.22;;;12.11;100.00
50867;BME280;36839;51.946;21.002;2022-09-16T06:24:12;98879.97;;;12.17;100.00
50867;BME280;36839;51.946;21.002;2022-09-16T06:26:41;98873.87;;;12.18;100.00
50867;BME280;36839;51.946;21.002;2022-09-16T06:29:11;98879.02;;;12.22;100.00
50867;BME280;36839;51.946;21.002;2022-09-16T06:31:39;98886.01;;;12.30;100.00
50867;BME280;36839;51.946;21.002;2022-09-16T06:34:06;98886.01;;;12.30;100.00
50867;BME280;36839;51.946;21.002;2022-09-16T06:36:37;98882.55;;;12.47;100.00
50867;BME280;36839;51.946;21.002;2022-09-16T06:39:04;98882.55;;;12.47;100.00
50867;BME280;36839;51.946;21.002;2022-09-16T06:41:33;98884.75;;;12.48;100.00
50867;BME280;36839;51.946;21.002;2022-09-16T06:44:00;98877.22;;;12.51;100.00
50867;BME280;36839;51.946;21.002;2022-09-16T06:46:28;98876.08;;;12.52;100.00
50867;BME280;36839;51.946;21.002;2022-09-16T06:48:56;98876.08;;;12.52;100.00
50867;BME280;36839;51.946;21.002;2022-09-16T06:51:25;98876.63;;;12.63;100.00
50867;BME280;36839;51.946;21.002;2022-09-16T06:54:02;98876.63;;;12.63;100.00
50867;BME280;36839;51.946;21.002;2022-09-16T06:56:29;98873.03;;;12.73;100.00
50867;BME280;36839;51.946;21.002;2022-09-16T06:58:55;98873.03;;;12.73;100.00
50867;BME280;36839;51.946;21.002;2022-09-16T07:01:25;98889.20;;;12.80;100.00
50867;BME280;36839;51.946;21.002;2022-09-16T07:03:55;98901.87;;;13.03;100.00
50867;BME280;36839;51.946;21.002;2022-09-16T07:06:26;98887.93;;;13.06;99.97
50867;BME280;36839;51.946;21.002;2022-09-16T07:08:53;98892.89;;;13.18;99.93
50867;BME280;36839;51.946;21.002;2022-09-16T07:11:22;98893.26;;;13.25;98.45
50867;BME280;36839;51.946;21.002;2022-09-16T07:13:51;98894.03;;;13.28;96.64
50867;BME280;36839;51.946;21.002;2022-09-16T07:16:22;98898.70;;;13.38;98.32
50867;BME280;36839;51.946;21.002;2022-09-16T07:18:57;98902.27;;;13.30;93.28
50867;BME280;36839;51.946;21.002;2022-09-16T07:21:25;98904.34;;;13.25;94.22
50867;BME280;36839;51.946;21.002;2022-09-16T07:23:56;98904.34;;;13.25;94.22
50867;BME280;36839;51.946;21.002;2022-09-16T07:26:34;98892.84;;;13.40;96.26
50867;BME280;36839;51.946;21.002;2022-09-16T07:28:59;98892.84;;;13.40;96.26
50867;BME280;36839;51.946;21.002;2022-09-16T07:31:30;98892.39;;;13.64;94.61
50867;BME280;36839;51.946;21.002;2022-09-16T07:33:58;98897.34;;;13.76;93.39
50867;BME280;36839;51.946;21.002;2022-09-16T07:36:28;98897.34;;;13.76;93.39
50867;BME280;36839;51.946;21.002;2022-09-16T07:38:57;98897.27;;;13.87;91.55
50867;BME280;36839;51.946;21.002;2022-09-16T07:41:27;98907.72;;;13.90;90.09
50867;BME280;36839;51.946;21.002;2022-09-16T07:43:57;98907.72;;;13.90;90.09
50867;BME280;36839;51.946;21.002;2022-09-16T07:46:29;98904.63;;;14.09;87.98
50867;BME280;36839;51.946;21.002;2022-09-16T07:48:58;98886.44;;;14.14;89.43
50867;BME280;36839;51.946;21.002;2022-09-16T07:51:28;98898.75;;;14.10;84.82
50867;BME280;36839;51.946;21.002;2022-09-16T07:54:03;98902.91;;;14.01;83.09
50867;BME280;36839;51.946;21.002;2022-09-16T07:56:35;98900.31;;;14.05;84.02
50867;BME280;36839;51.946;21.002;2022-09-16T07:59:06;98908.31;;;14.07;83.70
50867;BME280;36839;51.946;21.002;2022-09-16T08:01:37;98903.50;;;14.18;84.23
50867;BME280;36839;51.946;21.002;2022-09-16T08:04:06;98903.02;;;14.34;84.91
50867;BME280;36839;51.946;21.002;2022-09-16T08:06:32;98912.73;;;14.25;79.11
50867;BME280;36839;51.946;21.002;2022-09-16T08:09:04;98912.73;;;14.25;79.11
50867;BME280;36839;51.946;21.002;2022-09-16T08:11:33;98916.24;;;14.37;78.50
50867;BME280;36839;51.946;21.002;2022-09-16T08:14:01;98916.24;;;14.37;78.50
50867;BME280;36839;51.946;21.002;2022-09-16T08:16:28;98911.91;;;14.59;78.37
50867;BME280;36839;51.946;21.002;2022-09-16T08:18:59;98919.95;;;14.52;77.71
50867;BME280;36839;51.946;21.002;2022-09-16T08:21:28;98916.83;;;14.62;79.52
50867;BME280;36839;51.946;21.002;2022-09-16T08:23:55;98915.69;;;14.54;78.90
50867;BME280;36839;51.946;21.002;2022-09-16T08:26:24;98915.76;;;14.43;78.14
50867;BME280;36839;51.946;21.002;2022-09-16T08:28:52;98915.76;;;14.43;78.14
50867;BME280;36839;51.946;21.002;2022-09-16T08:31:20;98908.96;;;14.21;76.43
50867;BME280;36839;51.946;21.002;2022-09-16T08:33:50;98904.82;;;14.12;77.25
50867;BME280;36839;51.946;21.002;2022-09-16T08:36:19;98904.82;;;14.12;77.25
50867;BME280;36839;51.946;21.002;2022-09-16T08:38:51;98897.22;;;14.15;79.02
50867;BME280;36839;51.946;21.002;2022-09-16T08:44:36;98908.94;;;14.90;80.02
50867;BME280;36839;51.946;21.002;2022-09-16T08:47:04;98904.72;;;15.07;75.32
50867;BME280;36839;51.946;21.002;2022-09-16T08:49:35;98904.72;;;15.07;75.32
50867;BME280;36839;51.946;21.002;2022-09-16T08:52:07;98910.86;;;15.07;72.92
50867;BME280;36839;51.946;21.002;2022-09-16T08:54:36;98906.46;;;15.21;70.93
50867;BME280;36839;51.946;21.002;2022-09-16T08:57:03;98912.67;;;15.26;70.98
50867;BME280;36839;51.946;21.002;2022-09-16T08:59:34;98916.30;;;15.18;72.80
50867;BME280;36839;51.946;21.002;2022-09-16T09:02:23;98914.62;;;15.02;71.27
50867;BME280;36839;51.946;21.002;2022-09-16T09:04:48;98919.23;;;14.90;71.71
50867;BME280;36839;51.946;21.002;2022-09-16T09:07:41;98920.39;;;14.89;72.40
50867;BME280;36839;51.946;21.002;2022-09-16T09:10:06;98920.39;;;14.89;72.40
50867;BME280;36839;51.946;21.002;2022-09-16T09:12:39;98912.67;;;14.94;72.84
50867;BME280;36839;51.946;21.002;2022-09-16T09:15:33;98914.91;;;15.18;73.48
50867;BME280;36839;51.946;21.002;2022-09-16T09:23:51;98915.24;;;15.17;71.79
50867;BME280;36839;51.946;21.002;2022-09-16T09:26:27;98913.17;;;15.20;69.75
50867;BME280;36839;51.946;21.002;2022-09-16T09:29:14;98920.23;;;15.32;70.62
50867;BME280;36839;51.946;21.002;2022-09-16T09:34:47;98913.05;;;15.31;70.22
50867;BME280;36839;51.946;21.002;2022-09-16T09:48:25;98918.54;;;15.25;70.59
50867;BME280;36839;51.946;21.002;2022-09-16T09:50:52;98920.06;;;15.37;72.11
50867;BME280;36839;51.946;21.002;2022-09-16T09:55:53;98917.56;;;15.44;70.43
50867;BME280;36839;51.946;21.002;2022-09-16T09:58:41;98917.56;;;15.44;70.43
50867;BME280;36839;51.946;21.002;2022-09-16T10:01:07;98929.33;;;15.50;70.59
50867;BME280;36839;51.946;21.002;2022-09-16T10:03:33;98936.87;;;15.49;70.68
50867;BME280;36839;51.946;21.002;2022-09-16T10:06:01;98924.78;;;15.60;71.81
50867;BME280;36839;51.946;21.002;2022-09-16T10:08:42;98925.00;;;15.69;71.82
50867;BME280;36839;51.946;21.002;2022-09-16T10:11:19;98925.00;;;15.69;71.82
50867;BME280;36839;51.946;21.002;2022-09-16T10:13:54;98930.19;;;15.80;69.76
50867;BME280;36839;51.946;21.002;2022-09-16T10:16:33;98923.70;;;15.82;70.71
50867;BME280;36839;51.946;21.002;2022-09-16T10:19:17;98922.17;;;15.78;69.61
50867;BME280;36839;51.946;21.002;2022-09-16T10:21:47;98922.17;;;15.78;69.61
50867;BME280;36839;51.946;21.002;2022-09-16T10:24:30;98918.86;;;15.70;69.57
50867;BME280;36839;51.946;21.002;2022-09-16T10:27:00;98920.91;;;15.82;70.66
50867;BME280;36839;51.946;21.002;2022-09-16T10:29:29;98914.48;;;16.05;68.65
50867;BME280;36839;51.946;21.002;2022-09-16T10:31:59;98914.48;;;16.05;68.65
50867;BME280;36839;51.946;21.002;2022-09-16T10:37:02;98918.94;;;16.12;67.16
50867;BME280;36839;51.946;21.002;2022-09-16T10:39:33;98911.52;;;15.95;69.72
50867;BME280;36839;51.946;21.002;2022-09-16T10:42:02;98906.00;;;15.86;70.66
50867;BME280;36839;51.946;21.002;2022-09-16T10:44:31;98906.00;;;15.86;70.66
50867;BME280;36839;51.946;21.002;2022-09-16T10:52:22;98903.61;;;15.76;70.54
50867;BME280;36839;51.946;21.002;2022-09-16T10:54:51;98903.61;;;15.76;70.54
50867;BME280;36839;51.946;21.002;2022-09-16T10:57:31;98902.19;;;15.47;71.41
50867;BME280;36839;51.946;21.002;2022-09-16T11:03:05;98925.45;;;14.78;80.88
50867;BME280;36839;51.946;21.002;2022-09-16T11:10:45;98925.62;;;13.95;90.68
50867;BME280;36839;51.946;21.002;2022-09-16T11:19:05;98909.59;;;13.92;95.84
50867;BME280;36839;51.946;21.002;2022-09-16T11:26:56;98905.73;;;14.45;96.78
50867;BME280;36839;51.946;21.002;2022-09-16T11:32:03;98891.42;;;14.40;94.02
50867;BME280;36839;51.946;21.002;2022-09-16T11:34:48;98887.52;;;14.50;96.58
50867;BME280;36839;51.946;21.002;2022-09-16T11:37:18;98877.84;;;14.56;95.20
50867;BME280;36839;51.946;21.002;2022-09-16T11:42:43;98877.18;;;14.59;96.29
50867;BME280;36839;51.946;21.002;2022-09-16T11:56:07;98883.22;;;15.99;82.27
50867;BME280;36839;51.946;21.002;2022-09-16T11:58:49;98871.91;;;16.31;77.34
50867;BME280;36839;51.946;21.002;2022-09-16T12:01:40;98881.25;;;16.47;71.16
50867;BME280;36839;51.946;21.002;2022-09-16T12:04:44;98882.31;;;16.76;68.91
50867;BME280;36839;51.946;21.002;2022-09-16T12:07:13;98887.89;;;17.15;69.78
50867;BME280;36839;51.946;21.002;2022-09-16T12:10:00;98887.89;;;17.15;69.78
50867;BME280;36839;51.946;21.002;2022-09-16T12:12:32;98882.66;;;17.32;67.48
50867;BME280;36839;51.946;21.002;2022-09-16T12:15:01;98880.33;;;17.34;62.32
50867;BME280;36839;51.946;21.002;2022-09-16T12:17:35;98881.82;;;17.13;63.60
50867;BME280;36839;51.946;21.002;2022-09-16T12:22:53;98869.64;;;17.42;61.91
50867;BME280;36839;51.946;21.002;2022-09-16T12:25:32;98868.02;;;17.72;63.87
50867;BME280;36839;51.946;21.002;2022-09-16T12:28:04;98868.02;;;17.72;63.87
50867;BME280;36839;51.946;21.002;2022-09-16T12:30:37;98858.48;;;17.79;61.21
50867;BME280;36839;51.946;21.002;2022-09-16T12:33:05;98865.45;;;17.66;62.39
50867;BME280;36839;51.946;21.002;2022-09-16T12:35:51;98876.17;;;17.46;65.38
50867;BME280;36839;51.946;21.002;2022-09-16T12:38:17;98882.88;;;17.08;65.45
50867;BME280;36839;51.946;21.002;2022-09-16T12:40:53;98882.88;;;17.08;65.45
50867;BME280;36839;51.946;21.002;2022-09-16T12:43:29;98866.97;;;16.43;67.91
50867;BME280;36839;51.946;21.002;2022-09-16T12:46:01;98866.97;;;16.43;67.91
50867;BME280;36839;51.946;21.002;2022-09-16T12:48:50;98865.92;;;15.99;76.77
50867;BME280;36839;51.946;21.002;2022-09-16T12:54:31;98879.86;;;15.40;77.76
50867;BME280;36839;51.946;21.002;2022-09-16T12:57:12;98875.48;;;15.31;83.34
50867;BME280;36839;51.946;21.002;2022-09-16T13:02:19;98862.64;;;15.18;79.42
50867;BME280;36839;51.946;21.002;2022-09-16T13:04:49;98862.35;;;15.63;83.88
50867;BME280;36839;51.946;21.002;2022-09-16T13:07:25;98862.35;;;15.63;83.88
50867;BME280;36839;51.946;21.002;2022-09-16T13:10:15;98859.48;;;15.57;80.60
50867;BME280;36839;51.946;21.002;2022-09-16T13:12:36;98854.64;;;15.46;78.87
50867;BME280;36839;51.946;21.002;2022-09-16T13:15:06;98860.71;;;15.54;78.13
50867;BME280;36839;51.946;21.002;2022-09-16T13:17:38;98860.71;;;15.54;78.13
50867;BME280;36839;51.946;21.002;2022-09-16T13:20:16;98859.34;;;16.25;77.62
50867;BME280;36839;51.946;21.002;2022-09-16T13:25:31;98860.96;;;16.86;70.56
50867;BME280;36839;51.946;21.002;2022-09-16T13:30:55;98854.47;;;16.94;69.62
50867;BME280;36839;51.946;21.002;2022-09-16T13:33:24;98851.73;;;17.06;68.54
50867;BME280;36839;51.946;21.002;2022-09-16T13:36:15;98860.64;;;16.88;64.91
50867;BME280;36839;51.946;21.002;2022-09-16T13:38:52;98860.64;;;16.88;64.91
50867;BME280;36839;51.946;21.002;2022-09-16T13:41:38;98845.56;;;17.31;62.46
50867;BME280;36839;51.946;21.002;2022-09-16T13:44:43;98847.91;;;17.35;61.91
50867;BME280;36839;51.946;21.002;2022-09-16T13:55:03;98855.57;;;17.57;65.48
50867;BME280;36839;51.946;21.002;2022-09-16T14:01:26;98844.64;;;17.39;63.35
50867;BME280;36839;51.946;21.002;2022-09-16T14:11:21;98835.36;;;17.72;59.83
50867;BME280;36839;51.946;21.002;2022-09-16T14:13:54;98834.65;;;17.45;58.37
50867;BME280;36839;51.946;21.002;2022-09-16T14:16:27;98835.91;;;17.78;58.07
50867;BME280;36839;51.946;21.002;2022-09-16T14:22:04;98832.20;;;17.55;57.59
50867;BME280;36839;51.946;21.002;2022-09-16T14:24:37;98833.00;;;17.13;57.98
50867;BME280;36839;51.946;21.002;2022-09-16T14:30:00;98827.78;;;17.54;57.23
50867;BME280;36839;51.946;21.002;2022-09-16T14:32:30;98828.82;;;17.56;55.52
50867;BME280;36839;51.946;21.002;2022-09-16T14:35:12;98828.82;;;17.56;55.52
50867;BME280;36839;51.946;21.002;2022-09-16T14:37:31;98831.25;;;17.57;55.70
50867;BME280;36839;51.946;21.002;2022-09-16T14:40:09;98829.41;;;17.55;56.83
50867;BME280;36839;51.946;21.002;2022-09-16T14:42:34;98835.09;;;17.40;54.23
50867;BME280;36839;51.946;21.002;2022-09-16T14:45:05;98832.88;;;17.52;56.41
50867;BME280;36839;51.946;21.002;2022-09-16T14:47:37;98834.16;;;17.67;57.46
50867;BME280;36839;51.946;21.002;2022-09-16T14:50:10;98840.22;;;17.57;56.10
50867;BME280;36839;51.946;21.002;2022-09-16T14:52:37;98845.33;;;17.49;56.29
50867;BME280;36839;51.946;21.002;2022-09-16T14:55:18;98841.14;;;17.42;57.43
50867;BME280;36839;51.946;21.002;2022-09-16T14:57:46;98833.93;;;17.41;56.71
50867;BME280;36839;51.946;21.002;2022-09-16T15:00:15;98839.39;;;17.13;57.22
50867;BME280;36839;51.946;21.002;2022-09-16T15:02:52;98839.39;;;17.13;57.22
50867;BME280;36839;51.946;21.002;2022-09-16T15:10:38;98839.14;;;16.28;61.47
50867;BME280;36839;51.946;21.002;2022-09-16T15:13:09;98836.78;;;16.18;62.11
50867;BME280;36839;51.946;21.002;2022-09-16T15:15:45;98833.06;;;16.14;63.15
50867;BME280;36839;51.946;21.002;2022-09-16T15:18:25;98833.06;;;16.14;63.15
50867;BME280;36839;51.946;21.002;2022-09-16T15:21:03;98833.72;;;16.38;63.41
50867;BME280;36839;51.946;21.002;2022-09-16T15:23:29;98831.58;;;16.49;63.22
50867;BME280;36839;51.946;21.002;2022-09-16T15:28:51;98828.38;;;16.39;61.42
50867;BME280;36839;51.946;21.002;2022-09-16T15:31:36;98824.55;;;16.37;63.66
50867;BME280;36839;51.946;21.002;2022-09-16T15:34:40;98819.67;;;16.34;63.89
50867;BME280;36839;51.946;21.002;2022-09-16T15:36:55;98820.22;;;16.21;62.79
50867;BME280;36839;51.946;21.002;2022-09-16T15:39:24;98821.91;;;16.14;63.47
50867;BME280;36839;51.946;21.002;2022-09-16T15:42:17;98822.09;;;16.03;61.85
50867;BME280;36839;51.946;21.002;2022-09-16T15:44:54;98822.09;;;16.03;61.85
50867;BME280;36839;51.946;21.002;2022-09-16T15:47:24;98820.63;;;15.69;61.33